Time;durP1;ratioP1;P1;durP2;ratioP2;P2;SDS_P1;SDS_P2;PMS_P1;PMS_P2;Temp;Humidity;BMP_temperature;BMP_pressure;BME280_temperature;BME280_humidity;BME280_pressure;Samples;Min_cycle;Max_cycle;Signal;HPM_P1;HPM_P2
2021/12/11 00:00:53;;;;;;;18.07;10.23;;;;;;;5.02;78.71;99332.38;5038032;28;20213;-66
2021/12/11 00:03:24;;;;;;;18.67;10.03;;;;;;;5.07;78.38;99338.91;5014043;28;20214;-66
2021/12/11 00:05:55;;;;;;;16.13;9.30;;;;;;;4.82;78.99;99337.69;5031172;28;20344;-65
2021/12/11 00:08:26;;;;;;;19.77;10.10;;;;;;;5.09;78.05;99346.63;5031752;28;20212;-66
2021/12/11 00:10:59;;;;;;;15.60;8.63;;;;;;;5.18;77.79;99351.06;5018713;28;20671;-66
2021/12/11 00:13:31;;;;;;;18.47;9.60;;;;;;;5.06;77.77;99353.00;5021801;28;20502;-66
2021/12/11 00:16:01;;;;;;;17.53;10.20;;;;;;;5.20;77.33;99354.34;5024228;28;20245;-66
2021/12/11 00:18:30;;;;;;;15.90;9.37;;;;;;;5.30;76.74;99352.53;5023387;28;20209;-66
2021/12/11 00:21:01;;;;;;;16.83;9.50;;;;;;;5.35;76.72;99358.22;5026114;28;20601;-66
2021/12/11 00:23:32;;;;;;;17.53;10.20;;;;;;;5.18;77.40;99364.19;5030336;28;20686;-67
2021/12/11 00:26:03;;;;;;;18.33;9.50;;;;;;;5.39;76.97;99364.84;5030915;28;20208;-66
2021/12/11 00:28:31;;;;;;;18.27;10.43;;;;;;;5.29;76.91;99370.09;5031667;28;20220;-65
2021/12/11 00:31:00;;;;;;;18.13;10.03;;;;;;;5.23;77.42;99375.09;5030076;28;20229;-66
2021/12/11 00:33:33;;;;;;;16.80;9.13;;;;;;;5.24;77.47;99382.03;5014337;28;20213;-66
2021/12/11 00:36:09;;;;;;;16.17;8.97;;;;;;;5.23;77.50;99385.63;5025180;28;20224;-66
2021/12/11 00:38:39;;;;;;;17.47;9.70;;;;;;;5.11;78.10;99394.59;5014646;28;20215;-67
2021/12/11 00:41:15;;;;;;;14.40;8.30;;;;;;;5.03;78.47;99397.09;5027918;28;20206;-66
2021/12/11 00:43:44;;;;;;;16.37;8.30;;;;;;;5.11;78.02;99405.13;5020140;28;20295;-65
2021/12/11 00:46:16;;;;;;;15.53;8.20;;;;;;;5.07;78.36;99404.59;5018637;28;20320;-66
2021/12/11 00:48:44;;;;;;;17.33;9.33;;;;;;;5.11;78.36;99402.50;5027237;28;20224;-66
2021/12/11 00:51:17;;;;;;;15.07;8.40;;;;;;;5.28;77.18;99418.38;5031091;28;20221;-65
2021/12/11 00:53:47;;;;;;;14.23;8.10;;;;;;;5.16;78.00;99426.56;5027255;28;20263;-65
2021/12/11 00:56:19;;;;;;;14.63;8.17;;;;;;;5.15;77.75;99427.53;5017035;28;20240;-66
2021/12/11 00:58:50;;;;;;;15.07;8.23;;;;;;;5.18;77.74;99440.41;5030897;28;20227;-66
2021/12/11 01:01:21;;;;;;;15.80;8.67;;;;;;;5.23;77.66;99448.69;5033488;28;20204;-66
2021/12/11 01:03:54;;;;;;;12.37;7.40;;;;;;;4.93;78.29;99453.09;5033536;28;20307;-64
2021/12/11 01:06:25;;;;;;;12.17;7.17;;;;;;;5.10;78.01;99461.28;5028925;28;20243;-64
2021/12/11 01:08:58;;;;;;;12.93;7.97;;;;;;;5.00;78.34;99463.91;5028222;28;20266;-64
2021/12/11 01:11:32;;;;;;;14.27;7.37;;;;;;;5.08;78.16;99465.84;5030393;28;20235;-64
2021/12/11 01:14:12;;;;;;;12.77;7.33;;;;;;;5.17;77.76;99471.13;5030242;28;20299;-65
2021/12/11 01:16:41;;;;;;;11.43;7.17;;;;;;;5.27;77.38;99481.63;5027933;28;20304;-65
2021/12/11 01:19:16;;;;;;;14.03;7.27;;;;;;;5.18;77.53;99487.72;5029094;28;20681;-65
2021/12/11 01:21:56;;;;;;;15.07;8.67;;;;;;;5.03;78.34;99496.94;5028422;28;20200;-65
2021/12/11 01:24:41;;;;;;;12.20;7.33;;;;;;;5.01;78.57;99501.53;5029652;28;20223;-65
2021/12/11 01:27:12;;;;;;;10.37;6.77;;;;;;;4.92;78.77;99508.44;5019817;28;20211;-65
2021/12/11 01:29:41;;;;;;;11.17;6.87;;;;;;;4.85;79.20;99510.75;5028076;28;20307;-65
2021/12/11 01:32:10;;;;;;;11.50;7.23;;;;;;;4.86;79.36;99515.03;5027605;28;20244;-65
2021/12/11 01:34:38;;;;;;;11.00;6.63;;;;;;;4.98;78.72;99517.56;5030679;28;20204;-65
2021/12/11 01:37:07;;;;;;;11.50;7.13;;;;;;;5.19;77.73;99534.84;5034778;28;20582;-65
2021/12/11 01:39:39;;;;;;;10.97;6.60;;;;;;;4.98;78.28;99528.91;5019816;28;20243;-65
2021/12/11 01:42:09;;;;;;;11.23;7.20;;;;;;;4.98;78.93;99547.28;5028730;28;20297;-65
2021/12/11 01:44:40;;;;;;;10.27;6.47;;;;;;;4.96;79.11;99551.00;5027206;28;20220;-65
2021/12/11 01:47:11;;;;;;;11.07;6.77;;;;;;;4.85;79.57;99563.28;5023128;28;20210;-65
2021/12/11 01:49:43;;;;;;;10.40;7.13;;;;;;;4.84;79.31;99564.22;5026049;28;20263;-65
2021/12/11 01:52:14;;;;;;;12.00;7.03;;;;;;;5.14;78.00;99565.97;5032575;28;20240;-65
2021/12/11 01:54:44;;;;;;;10.83;6.67;;;;;;;5.21;77.52;99571.53;5027188;28;20335;-65
2021/12/11 01:57:15;;;;;;;11.27;7.33;;;;;;;4.97;78.24;99577.16;5028455;28;20220;-65
2021/12/11 01:59:52;;;;;;;13.33;7.43;;;;;;;5.08;78.02;99587.56;5024241;28;20212;-64
2021/12/11 02:02:25;;;;;;;11.63;7.50;;;;;;;4.91;79.70;99596.06;5023571;28;20628;-65
2021/12/11 02:04:55;;;;;;;12.43;7.33;;;;;;;4.98;79.39;99591.13;5025727;28;20686;-65
2021/12/11 02:07:26;;;;;;;10.03;6.70;;;;;;;5.03;78.28;99589.72;5027517;28;20203;-65
2021/12/11 02:09:59;;;;;;;10.93;7.37;;;;;;;4.92;78.88;99609.06;5028909;28;20208;-64
2021/12/11 02:12:37;;;;;;;10.67;7.30;;;;;;;5.04;78.81;99622.09;5025519;28;20264;-65
2021/12/11 02:15:12;;;;;;;10.70;7.10;;;;;;;5.03;78.91;99617.81;5023807;28;20213;-65
2021/12/11 02:17:47;;;;;;;12.57;7.90;;;;;;;5.00;78.31;99615.47;5021102;28;20749;-65
2021/12/11 02:20:26;;;;;;;11.17;8.07;;;;;;;4.99;78.07;99619.06;5022435;28;20219;-66
2021/12/11 02:22:57;;;;;;;12.70;7.47;;;;;;;5.09;77.99;99625.19;5023385;28;20695;-65
2021/12/11 02:25:31;;;;;;;15.07;8.33;;;;;;;4.98;78.45;99633.97;5020494;28;20295;-66
2021/12/11 02:28:04;;;;;;;12.30;7.43;;;;;;;5.20;78.01;99638.19;5024344;28;20652;-66
2021/12/11 02:30:37;;;;;;;11.70;7.90;;;;;;;5.20;77.46;99644.28;5027086;28;20854;-65
2021/12/11 02:33:14;;;;;;;11.83;7.57;;;;;;;5.15;77.43;99649.13;5024366;28;20229;-65
2021/12/11 02:35:46;;;;;;;12.20;8.03;;;;;;;5.00;78.01;99652.25;5014790;28;20316;-65
2021/12/11 02:38:20;;;;;;;12.13;7.83;;;;;;;5.23;77.52;99658.97;5016230;28;20216;-65
2021/12/11 02:40:54;;;;;;;12.67;7.50;;;;;;;5.04;77.99;99674.66;5026655;28;20219;-65
2021/12/11 02:43:27;;;;;;;14.30;7.30;;;;;;;5.07;77.71;99674.41;5021269;28;20677;-65
2021/12/11 02:46:00;;;;;;;11.63;7.30;;;;;;;5.24;77.29;99681.66;5026245;28;20216;-65
2021/12/11 02:48:31;;;;;;;10.43;6.50;;;;;;;4.98;77.39;99685.69;5017251;28;20289;-65
2021/12/11 02:51:07;;;;;;;10.17;6.07;;;;;;;5.00;77.80;99700.38;5020495;28;20729;-65
2021/12/11 02:53:39;;;;;;;10.80;6.77;;;;;;;5.15;77.63;99703.47;5026942;28;20283;-68
2021/12/11 02:56:11;;;;;;;10.90;6.67;;;;;;;5.22;76.85;99707.22;5027737;28;20251;-66
2021/12/11 02:58:42;;;;;;;10.03;6.77;;;;;;;5.29;76.78;99706.56;5024917;28;20635;-66
2021/12/11 03:01:22;;;;;;;11.77;6.60;;;;;;;4.98;78.07;99706.72;5029023;28;20577;-66
2021/12/11 03:03:57;;;;;;;11.07;6.80;;;;;;;5.11;77.58;99723.09;5025973;28;20205;-65
2021/12/11 03:06:28;;;;;;;10.43;6.57;;;;;;;4.97;77.63;99723.44;5013982;28;20306;-66
2021/12/11 03:08:59;;;;;;;12.17;6.83;;;;;;;4.97;78.14;99726.06;5026806;28;20813;-65
2021/12/11 03:11:30;;;;;;;10.60;6.33;;;;;;;5.00;78.03;99736.31;5022819;28;20727;-65
2021/12/11 03:14:03;;;;;;;9.10;5.60;;;;;;;5.09;78.05;99748.69;5022372;28;20260;-65
2021/12/11 03:16:36;;;;;;;10.47;6.30;;;;;;;5.08;77.89;99745.22;5025149;28;20247;-64
2021/12/11 03:19:06;;;;;;;11.73;7.13;;;;;;;5.06;78.09;99756.81;5024251;28;20220;-65
2021/12/11 03:21:35;;;;;;;11.20;6.77;;;;;;;5.00;78.12;99771.31;5023038;28;20299;-65
2021/12/11 03:24:05;;;;;;;11.47;7.13;;;;;;;5.11;77.99;99765.97;5017213;28;20204;-67
2021/12/11 03:26:33;;;;;;;11.70;7.13;;;;;;;5.22;77.45;99784.28;5026533;28;20205;-64
2021/12/11 03:29:02;;;;;;;11.03;6.93;;;;;;;5.23;77.54;99777.25;5027261;28;20211;-64
2021/12/11 03:31:30;;;;;;;11.23;7.13;;;;;;;5.39;76.85;99782.84;5031291;28;20631;-65
2021/12/11 03:34:00;;;;;;;11.20;6.60;;;;;;;5.35;76.50;99789.34;5023978;28;20239;-65
2021/12/11 03:36:30;;;;;;;12.37;6.97;;;;;;;5.12;77.33;99787.81;5017787;28;20259;-65
2021/12/11 03:39:00;;;;;;;10.70;6.30;;;;;;;5.23;76.71;99800.91;5018269;28;20272;-65
2021/12/11 03:41:31;;;;;;;10.97;6.90;;;;;;;5.15;76.98;99808.59;5025550;28;20745;-65
2021/12/11 03:43:59;;;;;;;12.07;7.30;;;;;;;5.06;77.25;99804.13;5024726;28;20295;-65
2021/12/11 03:46:27;;;;;;;12.37;7.53;;;;;;;5.19;76.59;99810.03;5024398;28;20208;-64
2021/12/11 03:48:57;;;;;;;13.70;7.70;;;;;;;5.31;76.30;99819.47;5026706;28;20636;-66
2021/12/11 03:51:30;;;;;;;10.37;6.93;;;;;;;5.50;75.56;99816.94;5025138;28;20762;-65
2021/12/11 03:54:01;;;;;;;11.87;7.20;;;;;;;5.21;76.30;99829.09;5021148;28;20229;-65
2021/12/11 03:56:30;;;;;;;12.10;6.73;;;;;;;5.38;76.14;99831.13;5016812;28;20360;-65
2021/12/11 03:59:00;;;;;;;12.30;6.40;;;;;;;5.15;76.79;99835.72;5025182;28;20216;-65
2021/12/11 04:01:31;;;;;;;10.30;7.03;;;;;;;5.16;76.62;99842.63;5019349;28;20209;-65
2021/12/11 04:04:04;;;;;;;12.23;6.93;;;;;;;5.29;76.36;99845.06;5025310;28;20299;-65
2021/12/11 04:06:33;;;;;;;9.97;6.50;;;;;;;5.14;76.99;99854.25;5024893;28;20224;-65
2021/12/11 04:09:07;;;;;;;10.73;6.77;;;;;;;5.04;77.03;99855.97;5016762;28;20429;-65
2021/12/11 04:11:38;;;;;;;9.87;6.43;;;;;;;5.27;76.59;99860.16;5025138;28;20247;-65
2021/12/11 04:14:09;;;;;;;9.27;5.77;;;;;;;5.22;76.67;99867.56;5018933;28;20236;-65
2021/12/11 04:16:37;;;;;;;11.40;6.80;;;;;;;5.08;77.01;99867.91;5025461;28;20685;-65
2021/12/11 04:19:07;;;;;;;11.20;6.47;;;;;;;5.18;76.89;99871.44;5025702;28;20213;-65
2021/12/11 04:21:35;;;;;;;10.30;6.37;;;;;;;5.20;76.75;99872.94;5024991;28;20205;-65
2021/12/11 04:24:05;;;;;;;10.97;6.47;;;;;;;5.48;75.94;99879.34;5021952;28;20237;-65
2021/12/11 04:26:33;;;;;;;10.20;6.37;;;;;;;5.23;76.33;99875.31;5026546;28;20225;-65
2021/12/11 04:29:04;;;;;;;9.77;6.40;;;;;;;5.26;76.75;99885.59;5022939;28;20209;-65
2021/12/11 04:31:35;;;;;;;12.23;6.80;;;;;;;5.15;76.90;99892.69;5025810;28;20661;-66
2021/12/11 04:34:07;;;;;;;10.67;6.43;;;;;;;5.04;77.36;99903.25;5021017;28;20225;-66
2021/12/11 04:36:38;;;;;;;11.43;7.13;;;;;;;5.11;76.88;99912.28;5025624;28;20224;-66
2021/12/11 04:39:10;;;;;;;10.37;6.60;;;;;;;5.23;76.92;99911.28;5026382;28;20730;-66
2021/12/11 04:41:50;;;;;;;10.47;6.30;;;;;;;5.19;76.92;99915.16;5028210;28;20244;-66
2021/12/11 04:44:25;;;;;;;10.57;6.30;;;;;;;5.13;77.28;99920.91;5027125;28;20601;-66
2021/12/11 04:46:53;;;;;;;10.67;6.63;;;;;;;5.19;76.29;99930.94;5029855;28;20218;-65
2021/12/11 04:49:30;;;;;;;11.87;7.80;;;;;;;5.22;76.90;99942.00;5027973;28;20304;-65
2021/12/11 04:52:04;;;;;;;10.37;6.47;;;;;;;5.24;76.72;99934.81;5022576;28;20211;-66
2021/12/11 04:54:46;;;;;;;12.60;8.10;;;;;;;5.39;75.73;99937.97;5028660;28;20232;-66
2021/12/11 04:57:49;;;;;;;12.13;7.80;;;;;;;5.34;76.32;99939.31;5028583;28;20216;-66
2021/12/11 05:00:30;;;;;;;12.57;8.37;;;;;;;5.50;75.49;99937.06;5032932;28;20254;-67
2021/12/11 05:03:33;;;;;;;14.17;8.10;;;;;;;5.51;75.30;99944.84;5030104;28;20278;-64
2021/12/11 05:06:24;;;;;;;12.80;8.07;;;;;;;5.60;74.23;99953.75;5028242;28;20254;-66
2021/12/11 05:09:19;;;;;;;12.53;8.00;;;;;;;5.47;74.79;99964.47;5031773;28;20562;-66
2021/12/11 05:11:55;;;;;;;12.83;8.33;;;;;;;5.57;74.29;99968.00;5029651;28;20303;-65
2021/12/11 05:14:25;;;;;;;15.13;8.83;;;;;;;5.49;74.05;99983.56;5028599;28;20239;-66
2021/12/11 05:16:54;;;;;;;14.03;8.07;;;;;;;5.38;74.08;99982.78;5029447;28;20216;-65
2021/12/11 05:19:22;;;;;;;12.30;8.20;;;;;;;5.50;73.96;99985.25;5033599;28;20216;-65
2021/12/11 05:21:50;;;;;;;13.27;8.73;;;;;;;5.54;73.93;99993.72;5034715;28;20247;-66
2021/12/11 05:24:20;;;;;;;16.47;9.43;;;;;;;5.66;73.67;99993.53;5026951;28;20299;-65
2021/12/11 05:26:48;;;;;;;13.33;8.43;;;;;;;5.54;73.17;99997.16;5031375;28;20213;-65
2021/12/11 05:29:16;;;;;;;13.93;9.33;;;;;;;5.65;73.21;100002.38;5028149;28;20662;-65
2021/12/11 05:31:44;;;;;;;16.13;9.00;;;;;;;5.68;72.79;100002.13;5030115;28;20761;-65
2021/12/11 05:34:13;;;;;;;14.87;9.10;;;;;;;5.72;73.08;100015.03;5030911;28;20241;-65
2021/12/11 05:36:41;;;;;;;15.50;9.40;;;;;;;5.79;72.80;100016.19;5026287;28;20219;-65
2021/12/11 05:39:12;;;;;;;14.37;9.13;;;;;;;5.80;72.78;100026.59;5027888;28;20212;-65
2021/12/11 05:41:41;;;;;;;15.00;9.13;;;;;;;5.71;73.60;100021.25;5024651;28;20243;-67
2021/12/11 05:44:11;;;;;;;13.93;9.20;;;;;;;5.77;73.02;100031.25;5023302;28;20215;-66
2021/12/11 05:46:40;;;;;;;15.53;10.17;;;;;;;5.56;73.66;100028.59;5027993;28;20316;-64
2021/12/11 05:49:09;;;;;;;17.10;9.90;;;;;;;5.58;73.91;100045.94;5026978;28;20305;-64
2021/12/11 05:51:40;;;;;;;15.93;9.53;;;;;;;5.63;73.35;100050.81;5027814;28;20248;-65
2021/12/11 05:54:12;;;;;;;16.40;10.10;;;;;;;5.62;73.34;100049.16;5029756;28;20311;-67
2021/12/11 05:56:41;;;;;;;18.50;9.80;;;;;;;5.59;73.35;100054.66;5041200;28;20672;-66
2021/12/11 05:59:12;;;;;;;14.23;9.17;;;;;;;5.56;73.70;100058.38;5039822;28;20208;-66
2021/12/11 06:01:43;;;;;;;15.47;10.03;;;;;;;5.56;73.45;100065.44;5044715;28;20204;-65
2021/12/11 06:04:15;;;;;;;14.23;9.20;;;;;;;5.47;73.38;100069.66;5047249;28;20204;-65
2021/12/11 06:06:46;;;;;;;15.67;10.33;;;;;;;5.41;73.42;100072.78;5047115;28;20616;-66
2021/12/11 06:09:16;;;;;;;15.97;10.00;;;;;;;5.49;74.10;100083.50;5046852;28;20208;-65
2021/12/11 06:11:48;;;;;;;16.77;9.97;;;;;;;5.33;74.71;100077.84;5048049;28;20215;-67
2021/12/11 06:14:17;;;;;;;15.10;9.97;;;;;;;5.32;75.05;100086.69;5045902;28;20316;-65
2021/12/11 06:16:45;;;;;;;18.40;10.53;;;;;;;5.54;74.07;100094.47;5042165;28;20707;-66
2021/12/11 06:19:13;;;;;;;15.47;10.03;;;;;;;5.58;74.14;100097.69;5040015;28;20251;-64
2021/12/11 06:21:43;;;;;;;17.67;10.40;;;;;;;5.42;74.36;100105.19;5048541;28;20740;-65
2021/12/11 06:24:13;;;;;;;15.30;10.37;;;;;;;5.53;74.22;100113.88;5045855;28;20208;-65
2021/12/11 06:26:40;;;;;;;21.07;11.10;;;;;;;5.63;73.50;100114.78;5046435;28;20216;-64
2021/12/11 06:29:08;;;;;;;16.30;10.30;;;;;;;5.57;73.06;100119.69;5041616;28;20205;-65
2021/12/11 06:31:36;;;;;;;16.93;10.30;;;;;;;5.35;73.50;100125.03;5046324;28;20236;-66
2021/12/11 06:34:04;;;;;;;14.37;9.17;;;;;;;5.34;73.13;100136.50;5032652;28;20228;-64
2021/12/11 06:36:32;;;;;;;14.53;9.77;;;;;;;5.51;73.35;100142.09;5044823;28;20303;-65
2021/12/11 06:39:05;;;;;;;17.57;10.93;;;;;;;5.62;72.91;100144.69;5044559;28;20216;-65
2021/12/11 06:41:37;;;;;;;17.70;9.97;;;;;;;5.61;72.74;100158.81;5042125;28;20208;-66
2021/12/11 06:44:05;;;;;;;18.37;10.80;;;;;;;5.24;73.88;100158.28;5044756;28;20701;-66
2021/12/11 06:46:36;;;;;;;17.40;10.17;;;;;;;5.33;73.96;100164.59;5042253;28;20300;-66
2021/12/11 06:49:04;;;;;;;19.37;11.47;;;;;;;5.35;73.93;100167.94;5034243;28;20245;-66
2021/12/11 06:51:33;;;;;;;17.43;10.83;;;;;;;5.51;73.50;100167.53;5045874;28;20287;-65
2021/12/11 06:54:06;;;;;;;16.67;9.77;;;;;;;5.39;73.54;100179.88;5047701;28;20231;-64
2021/12/11 06:56:37;;;;;;;19.17;11.23;;;;;;;5.23;73.62;100184.69;5031207;28;20217;-67
2021/12/11 06:59:06;;;;;;;16.30;10.63;;;;;;;5.34;73.44;100187.31;5016646;28;20243;-65
2021/12/11 07:01:36;;;;;;;19.70;11.33;;;;;;;5.55;73.40;100196.09;5025014;28;20579;-65
2021/12/11 07:04:07;;;;;;;18.70;11.23;;;;;;;5.35;73.26;100210.00;5016247;28;20758;-65
2021/12/11 07:06:36;;;;;;;17.33;10.60;;;;;;;5.19;74.31;100214.81;5027105;28;20216;-65
2021/12/11 07:09:05;;;;;;;17.63;10.40;;;;;;;5.41;73.47;100225.28;5029716;28;20831;-65
2021/12/11 07:11:34;;;;;;;14.87;9.60;;;;;;;5.60;72.58;100233.41;5025393;28;20241;-66
2021/12/11 07:14:03;;;;;;;17.57;10.97;;;;;;;5.67;72.16;100231.94;5024857;28;20289;-64
2021/12/11 07:16:31;;;;;;;20.80;11.20;;;;;;;5.73;72.43;100238.50;5026458;28;20600;-62
2021/12/11 07:18:59;;;;;;;19.30;10.67;;;;;;;5.78;72.49;100243.41;5032534;28;20553;-62
2021/12/11 07:21:28;;;;;;;19.87;10.87;;;;;;;5.67;72.67;100258.25;5033490;28;20213;-62
2021/12/11 07:23:56;;;;;;;18.53;10.53;;;;;;;5.75;72.13;100259.44;5027917;28;20219;-62
2021/12/11 07:26:31;;;;;;;22.77;11.40;;;;;;;5.81;72.47;100274.72;5036653;28;20235;-62
2021/12/11 07:29:02;;;;;;;17.50;10.93;;;;;;;5.74;72.58;100281.44;5035455;28;20294;-66
2021/12/11 07:31:33;;;;;;;19.67;11.20;;;;;;;5.66;72.96;100285.53;5024855;28;20251;-62
2021/12/11 07:34:01;;;;;;;21.27;11.57;;;;;;;5.60;72.59;100293.91;5014192;28;20256;-63
2021/12/11 07:36:30;;;;;;;17.37;10.57;;;;;;;5.45;72.57;100299.53;5012720;28;20220;-63
2021/12/11 07:39:01;;;;;;;17.77;11.00;;;;;;;5.63;72.98;100306.78;5027512;28;20223;-63
2021/12/11 07:41:29;;;;;;;20.33;11.40;;;;;;;5.55;72.67;100316.25;5013394;28;20217;-62
2021/12/11 07:43:57;;;;;;;17.97;11.03;;;;;;;5.74;72.50;100315.66;5016993;28;20218;-64
2021/12/11 07:46:28;;;;;;;19.03;11.13;;;;;;;5.70;71.66;100322.13;5028288;28;20204;-62
2021/12/11 07:48:57;;;;;;;20.20;10.83;;;;;;;5.72;71.75;100336.00;5027877;28;20295;-63
2021/12/11 07:51:27;;;;;;;18.00;10.73;;;;;;;5.76;71.73;100337.41;5018415;28;20248;-63
2021/12/11 07:53:59;;;;;;;20.50;11.73;;;;;;;5.85;71.44;100342.78;5027318;28;20263;-62
2021/12/11 07:56:27;;;;;;;18.43;11.27;;;;;;;5.88;71.44;100347.84;5041206;28;20225;-63
2021/12/11 07:58:59;;;;;;;20.23;11.47;;;;;;;5.82;72.08;100363.25;5036175;28;20255;-63
2021/12/11 08:01:28;;;;;;;20.13;10.37;;;;;;;5.76;72.45;100364.56;5043189;28;20211;-62
2021/12/11 08:03:59;;;;;;;20.40;12.00;;;;;;;5.72;72.55;100376.28;5044893;28;20212;-62
2021/12/11 08:06:28;;;;;;;20.63;12.23;;;;;;;5.71;71.86;100371.16;5045981;28;20231;-63
2021/12/11 08:08:56;;;;;;;18.83;11.03;;;;;;;5.70;72.30;100377.38;5047183;28;20295;-64
2021/12/11 08:11:28;;;;;;;19.43;11.67;;;;;;;5.86;71.87;100388.38;5043489;28;20291;-62
2021/12/11 08:13:58;;;;;;;23.00;12.47;;;;;;;5.78;71.55;100390.75;5049125;28;20211;-62
2021/12/11 08:16:36;;;;;;;22.23;12.23;;;;;;;5.72;72.11;100391.25;5049024;28;20250;-62
2021/12/11 08:19:05;;;;;;;21.43;12.10;;;;;;;5.80;71.86;100394.13;5037475;28;20211;-62
2021/12/11 08:21:33;;;;;;;19.60;10.70;;;;;;;5.78;72.10;100398.66;5048949;28;20237;-61
2021/12/11 08:24:05;;;;;;;21.57;10.90;;;;;;;4.94;73.19;100410.28;5048230;28;20215;-61
2021/12/11 08:26:34;;;;;;;18.70;10.50;;;;;;;5.59;72.35;100418.50;5053055;28;20291;-62
2021/12/11 08:29:09;;;;;;;23.30;12.93;;;;;;;5.61;71.86;100416.59;5038527;28;20250;-63
2021/12/11 08:31:38;;;;;;;18.77;11.70;;;;;;;5.76;71.62;100419.81;5045141;28;20210;-61
2021/12/11 08:34:08;;;;;;;24.70;12.87;;;;;;;5.62;71.42;100425.31;5041920;28;20292;-62
2021/12/11 08:36:36;;;;;;;29.00;14.80;;;;;;;5.54;72.21;100427.69;5039707;28;20307;-64
2021/12/11 08:39:06;;;;;;;23.80;13.90;;;;;;;5.61;71.54;100442.06;5039367;28;20244;-64
2021/12/11 08:41:35;;;;;;;27.70;15.57;;;;;;;5.65;71.65;100439.06;5044100;28;20292;-62
2021/12/11 08:44:10;;;;;;;23.60;12.97;;;;;;;5.88;71.03;100444.38;5039794;28;20235;-63
2021/12/11 08:46:40;;;;;;;20.90;12.73;;;;;;;5.90;70.83;100445.09;5047938;28;20642;-62
2021/12/11 08:49:13;;;;;;;20.53;11.73;;;;;;;5.96;70.53;100450.75;5048258;28;20224;-63
2021/12/11 08:51:45;;;;;;;23.17;12.87;;;;;;;6.02;70.24;100452.88;5035307;28;20228;-62
2021/12/11 08:54:13;;;;;;;24.73;13.20;;;;;;;5.81;70.64;100462.38;5039901;28;20696;-62
2021/12/11 08:56:43;;;;;;;23.00;13.10;;;;;;;5.81;70.82;100465.03;5018842;28;20261;-63
2021/12/11 08:59:14;;;;;;;24.30;14.13;;;;;;;6.19;69.91;100471.78;5021269;28;20216;-62
2021/12/11 09:01:49;;;;;;;24.87;14.07;;;;;;;6.20;69.35;100481.38;5018625;28;20690;-61
2021/12/11 09:04:23;;;;;;;23.20;13.03;;;;;;;6.12;69.82;100489.88;5025890;28;20291;-63
2021/12/11 09:06:55;;;;;;;18.87;11.67;;;;;;;6.10;69.90;100501.47;5029926;28;20252;-63
2021/12/11 09:09:38;;;;;;;18.83;11.13;;;;;;;5.98;70.25;100503.25;5027808;28;20243;-63
2021/12/11 09:12:11;;;;;;;21.43;11.63;;;;;;;5.98;70.49;100503.25;5022068;28;20209;-61
2021/12/11 09:14:43;;;;;;;16.10;9.90;;;;;;;5.81;71.04;100514.19;5028797;28;20214;-62
2021/12/11 09:17:15;;;;;;;21.77;12.07;;;;;;;5.91;70.95;100517.81;5028132;28;20232;-63
2021/12/11 09:19:49;;;;;;;20.10;10.83;;;;;;;6.06;70.04;100527.22;5029736;28;20301;-61
2021/12/11 09:22:20;;;;;;;17.47;10.87;;;;;;;5.98;70.34;100524.31;5029296;28;20784;-63
2021/12/11 09:24:54;;;;;;;22.33;12.77;;;;;;;5.98;70.35;100534.84;5023747;28;20219;-62
2021/12/11 09:27:26;;;;;;;22.20;11.30;;;;;;;6.06;70.23;100529.84;5029605;28;20884;-63
2021/12/11 09:29:57;;;;;;;17.17;10.83;;;;;;;5.94;70.63;100541.28;5028047;28;20237;-62
2021/12/11 09:32:30;;;;;;;19.67;11.07;;;;;;;6.09;70.09;100545.38;5023325;28;20744;-62
2021/12/11 09:35:06;;;;;;;14.50;9.27;;;;;;;6.19;69.79;100554.25;5023894;28;20227;-64
2021/12/11 09:37:36;;;;;;;17.43;10.27;;;;;;;6.23;69.79;100557.50;5030910;28;20228;-63
2021/12/11 09:40:08;;;;;;;19.60;11.30;;;;;;;6.18;70.28;100567.53;5022173;28;20245;-62
2021/12/11 09:42:36;;;;;;;17.50;10.33;;;;;;;6.07;71.39;100564.91;5022720;28;20240;-62
2021/12/11 09:45:09;;;;;;;18.67;10.93;;;;;;;6.09;70.52;100570.88;5029329;28;20904;-62
2021/12/11 09:47:42;;;;;;;19.30;10.50;;;;;;;6.26;70.26;100565.97;5025024;28;20213;-62
2021/12/11 09:50:16;;;;;;;18.93;9.93;;;;;;;6.26;70.06;100573.88;5030746;28;20345;-61
2021/12/11 09:52:46;;;;;;;17.77;10.80;;;;;;;6.29;70.44;100584.19;5028148;28;20209;-60
2021/12/11 09:55:17;;;;;;;21.70;11.67;;;;;;;6.28;70.23;100576.41;5033991;28;20242;-63
2021/12/11 09:57:48;;;;;;;20.30;11.60;;;;;;;6.26;70.82;100584.41;5038646;28;20231;-63
2021/12/11 10:00:21;;;;;;;21.97;11.00;;;;;;;6.38;70.78;100586.13;5040565;28;20291;-60
2021/12/11 10:02:49;;;;;;;22.33;11.90;;;;;;;6.37;70.91;100592.34;5042395;28;21277;-61
2021/12/11 10:05:30;;;;;;;21.30;12.00;;;;;;;6.25;71.79;100593.28;5041888;28;20211;-62
2021/12/11 10:08:25;;;;;;;20.47;11.20;;;;;;;6.46;71.04;100597.84;5041522;28;20228;-65
2021/12/11 10:10:54;;;;;;;19.03;11.67;;;;;;;6.43;71.24;100601.56;5039037;28;20278;-62
2021/12/11 10:13:21;;;;;;;18.13;11.37;;;;;;;6.24;71.74;100604.78;5040594;28;20210;-61
2021/12/11 10:15:51;;;;;;;20.87;12.07;;;;;;;6.49;71.57;100610.78;5044201;28;20304;-61
2021/12/11 10:18:22;;;;;;;18.67;11.10;;;;;;;6.56;71.48;100609.38;5052245;28;20235;-60
2021/12/11 10:20:54;;;;;;;21.20;11.47;;;;;;;6.55;71.73;100611.16;5042980;28;20224;-64
2021/12/11 10:23:26;;;;;;;17.47;11.33;;;;;;;6.67;71.53;100617.28;5043887;28;20300;-64
2021/12/11 10:26:00;;;;;;;22.10;11.33;;;;;;;6.56;71.94;100612.00;5048819;28;20300;-63
2021/12/11 10:28:31;;;;;;;19.10;10.83;;;;;;;6.63;71.60;100616.66;5050534;28;20268;-63
2021/12/11 10:31:03;;;;;;;16.37;10.23;;;;;;;6.60;71.71;100616.91;5050932;28;20870;-64
2021/12/11 10:33:33;;;;;;;18.20;11.13;;;;;;;6.63;71.77;100615.81;5045783;28;20209;-61
2021/12/11 10:36:05;;;;;;;17.27;10.93;;;;;;;6.78;71.16;100619.88;5046044;28;20308;-63
2021/12/11 10:38:33;;;;;;;20.63;11.40;;;;;;;6.79;70.71;100621.56;5041787;28;20305;-63
2021/12/11 10:41:21;;;;;;;19.97;10.87;;;;;;;6.77;71.05;100615.59;5045152;28;20213;-63
2021/12/11 10:43:53;;;;;;;20.23;12.20;;;;;;;6.98;70.01;100621.81;5046610;28;20242;-62
2021/12/11 10:46:25;;;;;;;20.73;10.43;;;;;;;7.29;68.98;100625.50;5046845;28;20209;-64
2021/12/11 10:48:54;;;;;;;21.10;11.63;;;;;;;7.68;67.77;100620.56;5043185;28;20305;-64
2021/12/11 10:51:25;;;;;;;18.20;10.67;;;;;;;7.63;67.41;100631.50;5045640;28;20310;-64
2021/12/11 10:53:55;;;;;;;18.17;10.40;;;;;;;7.85;66.93;100625.28;5049197;28;20242;-63
2021/12/11 10:56:24;;;;;;;17.63;10.37;;;;;;;8.74;64.24;100627.41;5045489;28;20266;-64
2021/12/11 10:58:56;;;;;;;15.53;9.13;;;;;;;8.92;63.10;100636.41;5046223;28;20304;-63
2021/12/11 11:01:29;;;;;;;16.20;9.40;;;;;;;8.99;62.25;100644.63;5049412;28;20215;-66
2021/12/11 11:04:00;;;;;;;13.27;8.73;;;;;;;8.88;63.20;100647.38;5045098;28;20200;-63
2021/12/11 11:06:29;;;;;;;13.37;8.87;;;;;;;9.80;60.08;100636.44;5054284;28;20299;-66
2021/12/11 11:08:57;;;;;;;11.60;8.30;;;;;;;11.09;56.19;100638.53;5045060;28;20306;-64
2021/12/11 11:11:29;;;;;;;11.87;7.67;;;;;;;10.73;55.24;100641.06;5047073;28;20683;-68
2021/12/11 11:13:59;;;;;;;11.37;7.80;;;;;;;10.34;56.48;100635.03;5046703;28;20244;-67
2021/12/11 11:16:29;;;;;;;12.50;8.10;;;;;;;10.58;55.85;100637.19;5054942;28;20324;-66
2021/12/11 11:18:57;;;;;;;11.20;7.50;;;;;;;11.26;53.21;100643.03;5047686;28;20359;-64
2021/12/11 11:21:29;;;;;;;11.27;7.70;;;;;;;10.21;55.80;100646.91;5046135;28;20733;-64
2021/12/11 11:23:57;;;;;;;10.97;7.67;;;;;;;9.55;57.60;100649.38;5046249;28;20243;-64
2021/12/11 11:26:28;;;;;;;9.30;6.93;;;;;;;9.27;58.95;100651.81;5044632;28;20327;-63
2021/12/11 11:28:58;;;;;;;12.33;7.50;;;;;;;8.89;59.26;100652.50;5045262;28;20303;-61
2021/12/11 11:31:34;;;;;;;10.63;6.93;;;;;;;8.77;59.06;100660.69;5039909;28;20236;-62
2021/12/11 11:34:03;;;;;;;13.80;7.30;;;;;;;8.74;59.22;100660.94;5045971;28;20208;-63
2021/12/11 11:36:31;;;;;;;10.53;7.33;;;;;;;8.63;60.02;100667.97;5049371;28;20217;-63
2021/12/11 11:39:08;;;;;;;14.73;7.47;;;;;;;8.49;60.22;100663.03;5048862;28;20207;-63
2021/12/11 11:41:41;;;;;;;12.43;6.47;;;;;;;8.22;60.74;100665.31;5047469;28;20300;-65
2021/12/11 11:44:11;;;;;;;11.03;6.90;;;;;;;8.12;61.26;100667.91;5045072;28;20618;-62
2021/12/11 11:46:41;;;;;;;11.53;6.30;;;;;;;8.16;61.01;100669.31;5050408;28;20582;-60